sensor_id;sensor_type;location;lat;lon;timestamp;P1;durP1;ratioP1;P2;durP2;ratioP2
70588;SDS011;58152;49.202;18.744;2022-08-21T00:00:12;6.35;;;5.55;;
70588;SDS011;58152;49.202;18.744;2022-08-21T00:02:44;6.03;;;5.20;;
70588;SDS011;58152;49.202;18.744;2022-08-21T00:05:16;9.35;;;5.50;;
70588;SDS011;58152;49.202;18.744;2022-08-21T00:07:42;9.02;;;5.18;;
70588;SDS011;58152;49.202;18.744;2022-08-21T00:10:08;7.55;;;5.47;;
70588;SDS011;58152;49.202;18.744;2022-08-21T00:12:35;7.95;;;5.72;;
70588;SDS011;58152;49.202;18.744;2022-08-21T00:15:01;5.55;;;4.97;;
70588;SDS011;58152;49.202;18.744;2022-08-21T00:17:26;8.65;;;5.10;;
70588;SDS011;58152;49.202;18.744;2022-08-21T00:19:52;7.85;;;5.75;;
70588;SDS011;58152;49.202;18.744;2022-08-21T00:22:17;7.32;;;5.18;;
70588;SDS011;58152;49.202;18.744;2022-08-21T00:24:43;8.40;;;5.18;;
70588;SDS011;58152;49.202;18.744;2022-08-21T00:27:08;5.70;;;5.05;;
70588;SDS011;58152;49.202;18.744;2022-08-21T00:29:34;6.20;;;5.60;;
70588;SDS011;58152;49.202;18.744;2022-08-21T00:32:00;7.18;;;5.97;;
70588;SDS011;58152;49.202;18.744;2022-08-21T00:34:25;8.93;;;5.43;;
70588;SDS011;58152;49.202;18.744;2022-08-21T00:36:51;7.13;;;5.15;;
70588;SDS011;58152;49.202;18.744;2022-08-21T00:39:16;5.32;;;4.80;;
70588;SDS011;58152;49.202;18.744;2022-08-21T00:41:42;7.80;;;4.80;;
70588;SDS011;58152;49.202;18.744;2022-08-21T00:44:09;5.88;;;5.28;;
70588;SDS011;58152;49.202;18.744;2022-08-21T00:46:37;6.95;;;5.70;;
70588;SDS011;58152;49.202;18.744;2022-08-21T00:49:04;6.40;;;5.25;;
70588;SDS011;58152;49.202;18.744;2022-08-21T00:51:50;9.40;;;5.13;;
70588;SDS011;58152;49.202;18.744;2022-08-21T00:54:20;6.65;;;5.07;;
70588;SDS011;58152;49.202;18.744;2022-08-21T00:56:50;6.63;;;5.32;;
70588;SDS011;58152;49.202;18.744;2022-08-21T00:59:20;6.72;;;5.43;;
70588;SDS011;58152;49.202;18.744;2022-08-21T01:01:47;6.50;;;5.72;;
70588;SDS011;58152;49.202;18.744;2022-08-21T01:04:13;7.05;;;5.72;;
70588;SDS011;58152;49.202;18.744;2022-08-21T01:06:41;8.80;;;5.75;;
70588;SDS011;58152;49.202;18.744;2022-08-21T01:09:07;6.43;;;5.40;;
70588;SDS011;58152;49.202;18.744;2022-08-21T01:11:33;6.72;;;5.65;;
70588;SDS011;58152;49.202;18.744;2022-08-21T01:14:00;10.07;;;6.47;;
70588;SDS011;58152;49.202;18.744;2022-08-21T01:16:26;9.82;;;6.55;;
70588;SDS011;58152;49.202;18.744;2022-08-21T01:18:51;8.35;;;6.03;;
70588;SDS011;58152;49.202;18.744;2022-08-21T01:21:23;8.60;;;6.50;;
70588;SDS011;58152;49.202;18.744;2022-08-21T01:23:51;8.77;;;6.03;;
70588;SDS011;58152;49.202;18.744;2022-08-21T01:26:20;5.65;;;5.15;;
70588;SDS011;58152;49.202;18.744;2022-08-21T01:28:54;5.78;;;5.07;;
70588;SDS011;58152;49.202;18.744;2022-08-21T01:31:24;5.60;;;5.03;;
70588;SDS011;58152;49.202;18.744;2022-08-21T01:33:51;6.95;;;5.28;;
70588;SDS011;58152;49.202;18.744;2022-08-21T01:36:17;9.50;;;5.70;;
70588;SDS011;58152;49.202;18.744;2022-08-21T01:38:43;7.25;;;5.32;;
70588;SDS011;58152;49.202;18.744;2022-08-21T01:41:09;7.25;;;5.20;;
70588;SDS011;58152;49.202;18.744;2022-08-21T01:43:34;7.03;;;5.35;;
70588;SDS011;58152;49.202;18.744;2022-08-21T01:46:01;8.82;;;6.63;;
70588;SDS011;58152;49.202;18.744;2022-08-21T01:48:28;8.38;;;5.85;;
70588;SDS011;58152;49.202;18.744;2022-08-21T01:50:53;6.57;;;5.38;;
70588;SDS011;58152;49.202;18.744;2022-08-21T01:53:19;8.35;;;6.05;;
70588;SDS011;58152;49.202;18.744;2022-08-21T01:55:44;8.90;;;5.68;;
70588;SDS011;58152;49.202;18.744;2022-08-21T01:58:10;7.32;;;6.32;;
70588;SDS011;58152;49.202;18.744;2022-08-21T02:00:36;8.38;;;7.05;;
70588;SDS011;58152;49.202;18.744;2022-08-21T02:03:01;7.70;;;6.88;;
70588;SDS011;58152;49.202;18.744;2022-08-21T02:05:28;10.98;;;6.88;;
70588;SDS011;58152;49.202;18.744;2022-08-21T02:07:53;10.00;;;7.25;;
70588;SDS011;58152;49.202;18.744;2022-08-21T02:10:25;7.75;;;6.95;;
70588;SDS011;58152;49.202;18.744;2022-08-21T02:12:53;11.43;;;7.57;;
70588;SDS011;58152;49.202;18.744;2022-08-21T02:15:20;9.85;;;6.68;;
70588;SDS011;58152;49.202;18.744;2022-08-21T02:17:47;8.02;;;6.78;;
70588;SDS011;58152;49.202;18.744;2022-08-21T02:20:21;9.40;;;7.43;;
70588;SDS011;58152;49.202;18.744;2022-08-21T02:22:48;8.98;;;6.68;;
70588;SDS011;58152;49.202;18.744;2022-08-21T02:25:15;6.85;;;6.15;;
70588;SDS011;58152;49.202;18.744;2022-08-21T02:27:42;8.23;;;5.85;;
70588;SDS011;58152;49.202;18.744;2022-08-21T02:30:10;7.07;;;5.95;;
70588;SDS011;58152;49.202;18.744;2022-08-21T02:32:38;9.38;;;6.38;;
70588;SDS011;58152;49.202;18.744;2022-08-21T02:35:04;5.95;;;5.15;;
70588;SDS011;58152;49.202;18.744;2022-08-21T02:37:30;8.48;;;6.07;;
70588;SDS011;58152;49.202;18.744;2022-08-21T02:39:56;9.25;;;6.47;;
70588;SDS011;58152;49.202;18.744;2022-08-21T02:42:21;8.93;;;6.80;;
70588;SDS011;58152;49.202;18.744;2022-08-21T02:44:47;10.23;;;6.15;;
70588;SDS011;58152;49.202;18.744;2022-08-21T02:47:13;8.63;;;7.07;;
70588;SDS011;58152;49.202;18.744;2022-08-21T02:49:39;8.43;;;6.47;;
70588;SDS011;58152;49.202;18.744;2022-08-21T02:52:04;9.18;;;6.82;;
70588;SDS011;58152;49.202;18.744;2022-08-21T02:54:31;8.40;;;6.63;;
70588;SDS011;58152;49.202;18.744;2022-08-21T02:56:57;8.80;;;6.47;;
70588;SDS011;58152;49.202;18.744;2022-08-21T02:59:22;7.93;;;6.82;;
70588;SDS011;58152;49.202;18.744;2022-08-21T03:01:48;9.13;;;6.25;;
70588;SDS011;58152;49.202;18.744;2022-08-21T03:04:13;8.35;;;6.75;;
70588;SDS011;58152;49.202;18.744;2022-08-21T03:06:39;9.20;;;7.00;;
70588;SDS011;58152;49.202;18.744;2022-08-21T03:09:04;9.15;;;7.10;;
70588;SDS011;58152;49.202;18.744;2022-08-21T03:11:30;7.38;;;6.60;;
70588;SDS011;58152;49.202;18.744;2022-08-21T03:13:55;8.32;;;7.03;;
70588;SDS011;58152;49.202;18.744;2022-08-21T03:16:21;11.10;;;7.40;;
70588;SDS011;58152;49.202;18.744;2022-08-21T03:18:46;8.35;;;6.97;;
70588;SDS011;58152;49.202;18.744;2022-08-21T03:21:12;6.95;;;5.97;;
70588;SDS011;58152;49.202;18.744;2022-08-21T03:23:41;7.40;;;6.70;;
70588;SDS011;58152;49.202;18.744;2022-08-21T03:26:07;7.88;;;6.85;;
70588;SDS011;58152;49.202;18.744;2022-08-21T03:28:33;9.15;;;6.57;;
70588;SDS011;58152;49.202;18.744;2022-08-21T03:31:01;8.73;;;6.55;;
70588;SDS011;58152;49.202;18.744;2022-08-21T03:33:30;8.32;;;7.07;;
70588;SDS011;58152;49.202;18.744;2022-08-21T03:36:00;9.43;;;7.97;;
70588;SDS011;58152;49.202;18.744;2022-08-21T03:38:29;10.10;;;7.95;;
70588;SDS011;58152;49.202;18.744;2022-08-21T03:40:55;8.38;;;7.30;;
70588;SDS011;58152;49.202;18.744;2022-08-21T03:43:21;8.73;;;7.15;;
70588;SDS011;58152;49.202;18.744;2022-08-21T03:46:27;9.57;;;8.00;;
70588;SDS011;58152;49.202;18.744;2022-08-21T03:48:53;7.60;;;6.88;;
70588;SDS011;58152;49.202;18.744;2022-08-21T03:51:18;11.48;;;8.43;;
70588;SDS011;58152;49.202;18.744;2022-08-21T03:53:44;8.98;;;7.97;;
70588;SDS011;58152;49.202;18.744;2022-08-21T03:56:10;10.02;;;7.88;;
70588;SDS011;58152;49.202;18.744;2022-08-21T03:58:36;9.88;;;8.43;;
70588;SDS011;58152;49.202;18.744;2022-08-21T04:01:03;8.80;;;7.60;;
70588;SDS011;58152;49.202;18.744;2022-08-21T04:03:31;8.32;;;7.13;;
70588;SDS011;58152;49.202;18.744;2022-08-21T04:05:57;11.90;;;7.53;;
70588;SDS011;58152;49.202;18.744;2022-08-21T04:08:23;10.65;;;7.95;;
70588;SDS011;58152;49.202;18.744;2022-08-21T04:10:50;8.48;;;7.68;;
70588;SDS011;58152;49.202;18.744;2022-08-21T04:13:17;10.77;;;8.15;;
70588;SDS011;58152;49.202;18.744;2022-08-21T04:15:43;9.07;;;8.02;;
70588;SDS011;58152;49.202;18.744;2022-08-21T04:18:09;10.50;;;8.38;;
70588;SDS011;58152;49.202;18.744;2022-08-21T04:20:34;8.48;;;7.60;;
70588;SDS011;58152;49.202;18.744;2022-08-21T04:23:00;9.25;;;8.13;;
70588;SDS011;58152;49.202;18.744;2022-08-21T04:25:27;9.52;;;8.13;;
70588;SDS011;58152;49.202;18.744;2022-08-21T04:27:53;7.95;;;7.22;;
70588;SDS011;58152;49.202;18.744;2022-08-21T04:30:19;8.98;;;8.00;;
70588;SDS011;58152;49.202;18.744;2022-08-21T04:32:48;8.95;;;7.35;;
70588;SDS011;58152;49.202;18.744;2022-08-21T04:35:16;9.00;;;7.43;;
70588;SDS011;58152;49.202;18.744;2022-08-21T04:37:44;8.48;;;7.68;;
70588;SDS011;58152;49.202;18.744;2022-08-21T04:40:11;8.57;;;7.18;;
70588;SDS011;58152;49.202;18.744;2022-08-21T04:42:42;7.78;;;6.97;;
70588;SDS011;58152;49.202;18.744;2022-08-21T04:45:30;9.23;;;7.47;;
70588;SDS011;58152;49.202;18.744;2022-08-21T04:47:58;9.85;;;8.02;;
70588;SDS011;58152;49.202;18.744;2022-08-21T04:50:29;8.20;;;7.28;;
70588;SDS011;58152;49.202;18.744;2022-08-21T04:53:09;9.32;;;7.15;;
70588;SDS011;58152;49.202;18.744;2022-08-21T04:55:38;8.38;;;7.57;;
70588;SDS011;58152;49.202;18.744;2022-08-21T04:58:06;7.32;;;6.63;;
70588;SDS011;58152;49.202;18.744;2022-08-21T05:00:35;7.78;;;7.10;;
70588;SDS011;58152;49.202;18.744;2022-08-21T05:03:02;9.15;;;8.25;;
70588;SDS011;58152;49.202;18.744;2022-08-21T05:05:30;8.50;;;7.43;;
70588;SDS011;58152;49.202;18.744;2022-08-21T05:08:06;9.98;;;9.07;;
70588;SDS011;58152;49.202;18.744;2022-08-21T05:10:41;9.57;;;8.40;;
70588;SDS011;58152;49.202;18.744;2022-08-21T05:13:11;10.07;;;9.13;;
70588;SDS011;58152;49.202;18.744;2022-08-21T05:15:41;9.38;;;8.23;;
70588;SDS011;58152;49.202;18.744;2022-08-21T05:18:07;9.38;;;8.43;;
70588;SDS011;58152;49.202;18.744;2022-08-21T05:20:33;9.40;;;8.40;;
70588;SDS011;58152;49.202;18.744;2022-08-21T05:22:59;9.77;;;8.77;;
70588;SDS011;58152;49.202;18.744;2022-08-21T05:25:26;9.07;;;8.18;;
70588;SDS011;58152;49.202;18.744;2022-08-21T05:27:51;9.77;;;8.23;;
70588;SDS011;58152;49.202;18.744;2022-08-21T05:30:18;9.30;;;7.72;;
70588;SDS011;58152;49.202;18.744;2022-08-21T05:32:45;8.35;;;7.50;;
70588;SDS011;58152;49.202;18.744;2022-08-21T05:35:12;10.20;;;7.55;;
70588;SDS011;58152;49.202;18.744;2022-08-21T05:37:38;9.63;;;7.32;;
70588;SDS011;58152;49.202;18.744;2022-08-21T05:40:05;9.90;;;8.38;;
70588;SDS011;58152;49.202;18.744;2022-08-21T05:42:32;9.55;;;7.70;;
70588;SDS011;58152;49.202;18.744;2022-08-21T05:44:57;10.05;;;8.27;;
70588;SDS011;58152;49.202;18.744;2022-08-21T05:47:23;8.55;;;7.70;;
70588;SDS011;58152;49.202;18.744;2022-08-21T05:49:48;8.90;;;7.50;;
70588;SDS011;58152;49.202;18.744;2022-08-21T05:59:10;7.82;;;7.13;;
70588;SDS011;58152;49.202;18.744;2022-08-21T09:51:55;4.20;;;2.97;;
70588;SDS011;58152;49.202;18.744;2022-08-21T18:45:16;1.33;;;0.40;;
70588;SDS011;58152;49.202;18.744;2022-08-21T20:49:39;1.67;;;1.58;;
70588;SDS011;58152;49.202;18.744;2022-08-21T20:52:37;1.48;;;1.38;;
70588;SDS011;58152;49.202;18.744;2022-08-21T20:58:30;2.03;;;1.58;;
70588;SDS011;58152;49.202;18.744;2022-08-21T21:01:24;1.70;;;1.50;;
70588;SDS011;58152;49.202;18.744;2022-08-21T22:02:16;9.15;;;8.23;;
70588;SDS011;58152;49.202;18.744;2022-08-21T22:08:37;3.40;;;2.38;;
70588;SDS011;58152;49.202;18.744;2022-08-21T22:11:44;1.40;;;1.30;;
70588;SDS011;58152;49.202;18.744;2022-08-21T22:14:36;0.95;;;0.70;;
70588;SDS011;58152;49.202;18.744;2022-08-21T22:17:31;0.70;;;0.70;;
70588;SDS011;58152;49.202;18.744;2022-08-21T22:20:05;0.70;;;0.70;;
70588;SDS011;58152;49.202;18.744;2022-08-21T22:22:48;0.73;;;0.68;;
70588;SDS011;58152;49.202;18.744;2022-08-21T22:25:58;0.63;;;0.63;;
70588;SDS011;58152;49.202;18.744;2022-08-21T22:31:35;0.57;;;0.55;;
70588;SDS011;58152;49.202;18.744;2022-08-21T22:34:11;0.70;;;0.70;;
